Terminal Aerodrome Forecast
Issued by NWS Cleveland, OH

Home | Current Version | Previous Version | Text Only | Print | Product List | Glossary On
Versions: 1 2 3 4 5 6 7 8 9 10 11 12 13 14
000
FTUS41 KCLE 291327 AAA
TAFMFD
TAF AMD
KMFD 291327Z 2913/3012 17007KT P6SM SCT050 BKN070
     FM292100 19008KT P6SM VCTS BKN050CB OVC120=

USA.gov is the U.S. government's official web portal to all federal, state and local government web resources and services.